createdAt,value
2018-06-18T00:01:00.282Z,88.00
2018-06-18T00:03:31.219Z,87.93
2018-06-18T00:06:02.611Z,89.33
2018-06-18T00:08:32.611Z,88.64
2018-06-18T00:11:03.253Z,88.91
2018-06-18T00:13:33.166Z,88.79
2018-06-18T00:16:04.853Z,89.19
2018-06-18T00:18:34.825Z,88.31
2018-06-18T00:21:06.335Z,88.53
2018-06-18T00:23:36.324Z,88.77
2018-06-18T00:26:06.456Z,88.26
2018-06-18T00:28:38.341Z,88.38
2018-06-18T00:31:10.193Z,88.71
2018-06-18T00:33:39.965Z,88.35
2018-06-18T00:36:09.909Z,88.78
2018-06-18T00:38:40.619Z,88.21
2018-06-18T00:41:12.009Z,88.73
2018-06-18T00:43:45.287Z,88.12
2018-06-18T00:46:15.849Z,88.00
2018-06-18T00:48:45.795Z,88.57
2018-06-18T00:51:17.382Z,87.96
2018-06-18T00:53:50.540Z,88.69
2018-06-18T00:56:20.362Z,88.25
2018-06-18T00:58:50.331Z,87.97
2018-06-18T01:01:20.992Z,88.35
2018-06-18T01:03:50.718Z,87.33
2018-06-18T01:06:21.298Z,88.03
2018-06-18T01:08:52.343Z,88.36
2018-06-18T01:11:22.748Z,88.24
2018-06-18T01:13:54.079Z,88.23
2018-06-18T01:16:24.524Z,88.05
2018-06-18T01:18:54.447Z,88.47
2018-06-18T01:21:25.756Z,88.40
2018-06-18T01:24:02.744Z,88.84
2018-06-18T01:26:33.289Z,88.99
2018-06-18T01:29:03.332Z,89.10
2018-06-18T01:31:33.979Z,89.01
2018-06-18T01:34:04.871Z,89.04
2018-06-18T01:36:35.031Z,88.83
2018-06-18T01:39:06.453Z,88.25
2018-06-18T01:41:37.057Z,89.37
2018-06-18T01:44:08.925Z,88.97
2018-06-18T01:46:40.263Z,89.01
2018-06-18T01:49:12.029Z,89.29
2018-06-18T01:51:43.998Z,89.80
2018-06-18T01:54:15.461Z,88.91
2018-06-18T01:56:45.461Z,89.89
2018-06-18T01:59:17.129Z,89.73
2018-06-18T02:01:46.953Z,89.07
2018-06-18T02:04:17.138Z,89.35
2018-06-18T02:06:47.065Z,89.34
2018-06-18T02:09:17.051Z,89.20
2018-06-18T02:11:47.814Z,90.06
2018-06-18T02:14:19.281Z,89.74
2018-06-18T02:16:49.868Z,90.25
2018-06-18T02:19:20.020Z,89.62
2018-06-18T02:21:49.601Z,89.60
2018-06-18T02:24:20.449Z,90.03
2018-06-18T02:27:21.918Z,90.05
2018-06-18T02:29:57.426Z,89.32
2018-06-18T02:32:32.502Z,89.43
2018-06-18T02:35:07.331Z,89.27
2018-06-18T02:37:42.871Z,89.15
2018-06-18T02:40:17.826Z,89.24
2018-06-18T02:42:49.579Z,89.41
2018-06-18T02:45:19.845Z,89.46
2018-06-18T02:47:49.814Z,89.82
2018-06-18T02:50:19.981Z,89.20
2018-06-18T02:52:52.801Z,89.26
2018-06-18T02:55:23.062Z,89.78
2018-06-18T02:57:54.583Z,89.85
2018-06-18T03:00:25.321Z,89.97
2018-06-18T03:02:56.004Z,89.48
2018-06-18T03:05:26.612Z,89.30
2018-06-18T03:07:56.468Z,88.83
2018-06-18T03:10:26.344Z,88.40
2018-06-18T03:12:56.901Z,88.36
2018-06-18T03:15:27.412Z,89.02
2018-06-18T03:17:58.024Z,88.57
2018-06-18T03:20:32.794Z,89.14
2018-06-18T03:23:08.519Z,88.76
2018-06-18T03:25:45.065Z,88.60
2018-06-18T03:28:20.086Z,89.28
2018-06-18T03:30:50.446Z,89.16
2018-06-18T03:33:22.086Z,89.27
2018-06-18T03:35:58.198Z,88.70
2018-06-18T03:38:30.578Z,89.72
2018-06-18T03:41:01.864Z,89.11
2018-06-18T03:43:33.995Z,89.19
2018-06-18T03:46:09.402Z,89.26
2018-06-18T03:48:40.157Z,89.41
2018-06-18T03:51:09.935Z,89.37
2018-06-18T03:53:39.749Z,89.78
2018-06-18T03:56:10.505Z,90.32
2018-06-18T03:58:40.575Z,89.46
2018-06-18T04:01:39.850Z,89.87
2018-06-18T04:04:18.471Z,88.81
2018-06-18T04:06:55.316Z,87.84
2018-06-18T04:09:30.925Z,88.09
2018-06-18T04:12:09.875Z,87.95
2018-06-18T04:14:45.501Z,87.36
2018-06-18T04:17:16.540Z,87.48
2018-06-18T04:19:47.115Z,87.56
2018-06-18T04:22:20.370Z,87.01
2018-06-18T04:24:51.020Z,86.29
2018-06-18T04:27:22.136Z,85.48
2018-06-18T04:29:54.401Z,84.81
2018-06-18T04:32:26.996Z,84.18
2018-06-18T04:35:00.089Z,83.26
2018-06-18T04:37:30.236Z,81.00
2018-06-18T04:40:00.111Z,81.11
2018-06-18T04:42:35.048Z,79.34
2018-06-18T04:45:10.242Z,79.71
2018-06-18T04:47:45.182Z,79.09
2018-06-18T04:50:20.112Z,78.35
2018-06-18T04:52:51.388Z,80.07
2018-06-18T04:55:21.897Z,78.08
2018-06-18T04:57:52.515Z,78.80
2018-06-18T05:01:06.472Z,78.87
2018-06-18T05:03:36.495Z,78.95
2018-06-18T05:06:06.437Z,79.35
2018-06-18T05:08:45.743Z,77.57
2018-06-18T05:11:16.531Z,77.86
2018-06-18T05:13:48.909Z,78.52
2018-06-18T05:16:19.414Z,79.59
2018-06-18T05:38:33.459Z,78.71
2018-06-18T05:41:04.119Z,73.97
2018-06-18T05:43:34.745Z,73.39
2018-06-18T05:46:04.643Z,73.36
2018-06-18T05:48:34.571Z,72.78
2018-06-18T05:51:05.103Z,71.08
2018-06-18T05:53:35.824Z,72.72
2018-06-18T05:56:05.637Z,73.38
2018-06-18T05:58:40.794Z,74.38
2018-06-18T06:01:11.075Z,74.10
2018-06-18T06:03:44.037Z,70.33
2018-06-18T06:06:14.728Z,71.90
2018-06-18T06:08:44.566Z,71.43
2018-06-18T06:11:15.015Z,70.52
2018-06-18T06:13:46.642Z,71.88
2018-06-18T06:16:16.857Z,72.11
2018-06-18T06:18:47.487Z,72.27
2018-06-18T06:21:19.242Z,71.65
2018-06-18T06:23:49.701Z,72.37
2018-06-18T06:26:21.673Z,69.97
2018-06-18T06:28:52.229Z,70.51
2018-06-18T06:31:22.712Z,70.08
2018-06-18T06:33:53.217Z,70.75
2018-06-18T06:36:26.123Z,70.85
2018-06-18T06:38:57.671Z,68.77
2018-06-18T06:41:29.665Z,68.62
2018-06-18T06:44:00.160Z,71.06
2018-06-18T06:46:31.645Z,69.31
2018-06-18T06:49:01.603Z,69.84
2018-06-18T06:51:31.599Z,68.46
2018-06-18T06:54:01.657Z,70.02
2018-06-18T06:56:31.652Z,67.64
2018-06-18T06:59:01.887Z,69.40
2018-06-18T07:01:33.730Z,69.93
2018-06-18T07:04:04.635Z,69.14
2018-06-18T07:06:35.255Z,71.25
2018-06-18T07:09:14.056Z,68.05
2018-06-18T07:11:45.524Z,68.83
2018-06-18T07:14:15.443Z,68.28
2018-06-18T07:16:46.285Z,64.58
2018-06-18T07:19:16.162Z,66.01
2018-06-18T07:21:46.156Z,64.37
2018-06-18T07:24:20.624Z,63.14
2018-06-18T07:26:51.107Z,65.93
2018-06-18T07:29:20.964Z,67.34
2018-06-18T07:31:51.708Z,66.60
2018-06-18T07:34:21.756Z,67.32
2018-06-18T07:36:51.639Z,66.47
2018-06-18T07:39:29.038Z,63.68
2018-06-18T07:41:59.123Z,63.57
2018-06-18T07:44:30.023Z,63.23
2018-06-18T07:47:00.548Z,64.16
2018-06-18T07:49:31.192Z,64.36
2018-06-18T07:52:02.526Z,63.60
2018-06-18T07:54:33.006Z,64.28
2018-06-18T07:57:02.789Z,62.56
2018-06-18T07:59:32.729Z,63.05
2018-06-18T08:02:04.161Z,62.34
2018-06-18T08:04:35.021Z,64.22
2018-06-18T08:07:06.579Z,64.21
2018-06-18T08:09:37.642Z,64.60
2018-06-18T08:12:08.681Z,65.05
2018-06-18T08:14:40.121Z,63.81
2018-06-18T08:17:14.045Z,64.34
2018-06-18T08:19:44.615Z,63.07
2018-06-18T08:22:25.583Z,60.92
2018-06-18T08:24:57.143Z,61.37
2018-06-18T08:27:27.788Z,62.78
2018-06-18T08:29:57.712Z,60.57
2018-06-18T08:32:27.676Z,56.71
2018-06-18T08:34:59.313Z,58.75
2018-06-18T08:37:32.160Z,58.76
2018-06-18T08:40:04.755Z,59.32
2018-06-18T08:42:35.332Z,58.85
2018-06-18T08:45:05.776Z,58.29
2018-06-18T08:47:36.630Z,59.25
2018-06-18T08:50:11.652Z,59.43
2018-06-18T08:52:46.533Z,59.64
2018-06-18T08:55:22.217Z,56.20
2018-06-18T08:57:57.209Z,56.87
2018-06-18T09:00:32.236Z,59.39
2018-06-18T09:03:10.295Z,59.75
2018-06-18T09:05:44.280Z,56.35
2018-06-18T09:08:21.054Z,56.26
2018-06-18T09:10:52.374Z,57.10
2018-06-18T09:13:23.241Z,59.66
2018-06-18T09:15:57.876Z,60.32
2018-06-18T09:18:27.689Z,55.48
2018-06-18T09:20:57.778Z,57.10
2018-06-18T09:23:28.206Z,57.93
2018-06-18T09:25:58.137Z,57.15
2018-06-18T09:28:30.563Z,56.20
2018-06-18T09:31:01.270Z,57.79
2018-06-18T09:33:33.089Z,56.36
2018-06-18T09:36:02.705Z,54.30
2018-06-18T09:38:32.513Z,54.90
2018-06-18T09:41:04.150Z,56.44
2018-06-18T09:43:43.999Z,56.43
2018-06-18T09:46:15.258Z,57.05
2018-06-18T09:48:50.913Z,56.13
2018-06-18T09:51:26.568Z,54.49
2018-06-18T09:54:01.279Z,54.10
2018-06-18T09:59:09.769Z,55.60
2018-06-18T10:01:39.711Z,56.07
2018-06-18T10:04:09.692Z,53.70
2018-06-18T10:06:40.990Z,54.22
2018-06-18T10:09:18.685Z,52.78
2018-06-18T10:11:49.235Z,51.72
2018-06-18T10:14:19.257Z,51.55
2018-06-18T10:16:49.256Z,53.34
2018-06-18T10:19:21.067Z,52.40
2018-06-18T10:21:50.857Z,53.08
2018-06-18T10:24:21.432Z,50.20
2018-06-18T10:26:52.803Z,51.67
2018-06-18T10:29:24.195Z,51.61
2018-06-18T10:31:53.884Z,51.66
2018-06-18T10:34:28.771Z,52.12
2018-06-18T10:37:04.268Z,52.56
2018-06-18T10:39:39.242Z,51.65
2018-06-18T10:42:14.327Z,53.20
2018-06-18T10:44:44.296Z,51.98
2018-06-18T10:47:17.888Z,51.08
2018-06-18T10:49:47.770Z,54.67
2018-06-18T10:52:17.984Z,53.13
2018-06-18T10:54:47.870Z,50.61
2018-06-18T10:57:17.434Z,50.36
2018-06-18T10:59:47.383Z,51.65
2018-06-18T11:02:18.725Z,56.17
2018-06-18T11:04:55.230Z,48.75
2018-06-18T11:07:25.922Z,52.55
2018-06-18T11:09:55.748Z,51.31
2018-06-18T11:12:25.442Z,49.03
2018-06-18T11:14:55.315Z,55.83
2018-06-18T11:18:33.726Z,49.63
2018-06-18T11:21:18.276Z,53.99
2018-06-18T11:23:53.334Z,49.85
2018-06-18T11:26:29.144Z,52.44
2018-06-18T11:29:00.899Z,50.51
2018-06-18T11:31:37.390Z,49.06
2018-06-18T11:34:07.939Z,54.11
2018-06-18T11:36:39.919Z,51.97
2018-06-18T11:41:48.312Z,53.14
2018-06-18T11:44:19.758Z,52.29
2018-06-18T11:46:49.809Z,48.45
2018-06-18T11:49:20.471Z,51.83
2018-06-18T11:51:50.556Z,50.71
2018-06-18T11:54:23.591Z,50.98
2018-06-18T11:56:54.877Z,52.76
2018-06-18T11:59:34.014Z,55.74
2018-06-18T12:02:09.960Z,49.74
2018-06-18T12:04:44.933Z,49.95
2018-06-18T12:07:20.447Z,47.83
2018-06-18T12:09:52.888Z,48.24
2018-06-18T12:12:22.917Z,51.41
2018-06-18T12:14:55.358Z,51.98
2018-06-18T12:17:25.839Z,48.14
2018-06-18T12:19:57.353Z,48.47
2018-06-18T12:22:27.954Z,48.35
2018-06-18T12:24:58.604Z,52.40
2018-06-18T12:27:31.663Z,49.34
2018-06-18T12:30:02.713Z,47.61
2018-06-18T12:32:35.492Z,50.96
2018-06-18T12:35:06.270Z,50.55
2018-06-18T12:37:36.882Z,46.91
2018-06-18T12:40:09.047Z,49.63
2018-06-18T12:42:38.852Z,48.47
2018-06-18T12:45:14.646Z,51.16
2018-06-18T12:47:50.333Z,50.58
2018-06-18T12:50:25.860Z,49.81
2018-06-18T12:55:43.111Z,52.30
2018-06-18T12:58:13.032Z,49.49
2018-06-18T13:00:44.277Z,52.02
2018-06-18T13:03:16.931Z,49.84
2018-06-18T13:05:47.610Z,50.54
2018-06-18T13:08:18.363Z,50.45
2018-06-18T13:10:48.326Z,50.67
2018-06-18T13:13:20.727Z,51.37
2018-06-18T13:15:51.383Z,49.94
2018-06-18T13:18:23.843Z,50.58
2018-06-18T13:20:54.840Z,50.85
2018-06-18T13:23:26.433Z,52.79
2018-06-18T13:25:57.114Z,51.81
2018-06-18T13:28:29.479Z,51.94
2018-06-18T13:30:59.539Z,50.63
2018-06-18T13:33:30.707Z,51.69
2018-06-18T13:36:01.472Z,47.33
2018-06-18T13:38:39.209Z,46.98
2018-06-18T13:41:15.415Z,48.28
2018-06-18T13:43:52.257Z,46.92
2018-06-18T13:46:27.343Z,47.95
2018-06-18T13:48:58.319Z,48.28
2018-06-18T13:51:28.651Z,50.34
2018-06-18T13:53:59.513Z,52.63
2018-06-18T13:56:30.313Z,46.09
2018-06-18T13:59:01.033Z,46.98
2018-06-18T14:01:31.471Z,48.30
2018-06-18T14:04:03.704Z,44.15
2018-06-18T14:06:35.415Z,45.64
2018-06-18T14:09:06.769Z,46.08
2018-06-18T14:11:37.682Z,44.07
2018-06-18T14:14:09.060Z,40.52
2018-06-18T14:16:40.387Z,43.18
2018-06-18T14:19:15.024Z,39.85
2018-06-18T14:21:45.064Z,39.15
2018-06-18T14:24:17.705Z,37.99
2018-06-18T14:26:48.724Z,37.84
2018-06-18T14:29:27.955Z,37.99
2018-06-18T14:32:01.442Z,39.50
2018-06-18T14:34:36.441Z,36.46
2018-06-18T14:37:11.370Z,35.65
2018-06-18T14:39:46.382Z,35.66
2018-06-18T14:42:16.479Z,35.05
2018-06-18T14:44:46.429Z,37.81
2018-06-18T14:47:17.154Z,39.72
2018-06-18T14:49:47.042Z,41.53
2018-06-18T14:52:17.775Z,39.12
2018-06-18T14:54:48.232Z,41.74
2018-06-18T14:57:20.393Z,35.40
2018-06-18T14:59:58.447Z,38.81
2018-06-18T15:02:28.975Z,39.01
2018-06-18T15:04:59.303Z,38.53
2018-06-18T15:07:30.901Z,40.40
2018-06-18T15:10:01.588Z,42.86
2018-06-18T15:12:35.880Z,41.67
2018-06-18T15:15:11.122Z,43.43
2018-06-18T15:17:43.488Z,40.03
2018-06-18T15:20:15.361Z,38.89
2018-06-18T15:22:51.310Z,36.26
2018-06-18T15:25:22.040Z,39.26
2018-06-18T15:27:52.029Z,38.42
2018-06-18T15:30:23.874Z,36.26
2018-06-18T15:32:54.726Z,36.90
2018-06-18T15:35:26.020Z,39.08
2018-06-18T15:37:57.407Z,38.28
2018-06-18T15:40:29.795Z,41.83
2018-06-18T15:42:59.863Z,38.45
2018-06-18T15:45:29.777Z,39.08
2018-06-18T15:47:59.657Z,34.62
2018-06-18T15:50:29.694Z,35.05
2018-06-18T15:53:01.199Z,35.75
2018-06-18T15:55:31.774Z,36.36
2018-06-18T15:58:02.429Z,38.41
2018-06-18T16:00:32.234Z,40.30
2018-06-18T16:03:02.020Z,39.04
2018-06-18T16:05:32.825Z,38.06
2018-06-18T16:08:02.709Z,37.17
2018-06-18T16:10:34.030Z,36.57
2018-06-18T16:13:05.148Z,36.23
2018-06-18T16:15:35.910Z,40.07
2018-06-18T16:18:06.116Z,38.44
2018-06-18T16:20:36.018Z,38.93
2018-06-18T16:23:07.321Z,38.50
2018-06-18T16:25:36.924Z,38.24
2018-06-18T16:28:06.579Z,39.14
2018-06-18T16:30:38.057Z,40.76
2018-06-18T16:33:07.730Z,40.88
2018-06-18T16:35:38.263Z,41.29
2018-06-18T16:38:12.024Z,42.12
2018-06-18T16:40:48.086Z,41.21
2018-06-18T16:43:19.340Z,41.69
2018-06-18T16:45:50.508Z,40.76
2018-06-18T16:48:21.947Z,43.42
2018-06-18T16:50:52.425Z,43.27
2018-06-18T16:53:26.597Z,43.93
2018-06-18T16:55:57.155Z,45.25
2018-06-18T16:58:30.882Z,45.94
2018-06-18T17:01:02.445Z,46.00
2018-06-18T17:03:32.128Z,46.08
2018-06-18T17:06:03.588Z,47.73
2018-06-18T17:08:33.721Z,47.94
2018-06-18T17:11:04.590Z,46.69
2018-06-18T17:13:38.963Z,45.64
2018-06-18T17:16:10.400Z,45.34
2018-06-18T17:18:40.540Z,44.50
2018-06-18T17:21:11.327Z,45.27
2018-06-18T17:23:43.882Z,45.99
2018-06-18T17:26:13.801Z,46.56
2018-06-18T17:28:43.791Z,47.51
2018-06-18T17:31:15.172Z,47.46
2018-06-18T17:33:45.887Z,48.46
2018-06-18T17:36:20.821Z,45.79
2018-06-18T17:38:51.571Z,47.28
2018-06-18T17:41:22.319Z,48.22
2018-06-18T17:43:57.535Z,48.56
2018-06-18T17:46:29.510Z,49.35
2018-06-18T17:48:59.515Z,50.16
2018-06-18T17:51:31.695Z,49.37
2018-06-18T17:54:01.588Z,49.95
2018-06-18T17:56:31.669Z,50.18
2018-06-18T17:59:02.401Z,51.30
2018-06-18T18:01:32.327Z,50.18
2018-06-18T18:04:04.751Z,50.33
2018-06-18T18:06:35.491Z,51.29
2018-06-18T18:09:09.186Z,51.16
2018-06-18T18:11:41.001Z,51.29
2018-06-18T18:14:11.071Z,52.13
2018-06-18T18:16:41.625Z,51.80
2018-06-18T18:19:17.144Z,52.97
2018-06-18T18:21:49.558Z,52.76
2018-06-18T18:24:19.675Z,52.65
2018-06-18T18:26:49.410Z,52.36
2018-06-18T18:29:22.874Z,53.18
2018-06-18T18:31:52.916Z,53.57
2018-06-18T18:34:27.404Z,53.42
2018-06-18T18:36:57.945Z,57.50
2018-06-18T18:39:29.476Z,58.27
2018-06-18T18:42:00.793Z,57.62
2018-06-18T18:44:37.131Z,57.67
2018-06-18T18:47:09.984Z,58.45
2018-06-18T18:49:40.736Z,57.66
2018-06-18T18:52:13.493Z,57.76
2018-06-18T18:56:02.346Z,58.54
2018-06-18T18:59:40.005Z,58.66
2018-06-18T19:02:10.234Z,59.28
2018-06-18T19:07:51.462Z,61.78
2018-06-18T19:10:27.789Z,60.77
2018-06-18T19:12:59.266Z,60.22
2018-06-18T19:15:30.469Z,59.92
2018-06-18T19:18:00.329Z,59.76
2018-06-18T19:34:37.427Z,60.71
2018-06-18T19:37:08.902Z,62.44
2018-06-18T19:39:44.838Z,62.63
2018-06-18T19:42:15.979Z,62.90
2018-06-18T19:44:49.036Z,63.96
2018-06-18T19:47:37.665Z,64.76
2018-06-18T19:50:09.646Z,65.60
2018-06-18T19:52:41.274Z,65.33
2018-06-18T19:55:20.366Z,66.17
2018-06-18T19:57:53.063Z,65.42
2018-06-18T20:00:27.895Z,65.80
2018-06-18T20:02:58.857Z,67.16
2018-06-18T20:05:29.743Z,67.37
2018-06-18T20:08:03.319Z,67.27
2018-06-18T20:10:33.297Z,67.49
2018-06-18T20:13:06.767Z,68.75
2018-06-18T20:15:37.236Z,69.18
2018-06-18T20:18:08.766Z,68.44
2018-06-18T20:20:39.186Z,68.67
2018-06-18T20:23:12.278Z,69.95
2018-06-18T20:25:58.316Z,69.92
2018-06-18T20:28:28.058Z,70.19
2018-06-18T20:30:59.747Z,71.18
2018-06-18T20:33:31.156Z,71.14
2018-06-18T20:36:10.712Z,70.81
2018-06-18T20:38:40.768Z,71.42
2018-06-18T20:41:12.502Z,72.37
2018-06-18T20:43:51.729Z,72.32
2018-06-18T20:46:23.395Z,71.62
2018-06-18T20:48:53.605Z,68.86
2018-06-18T20:51:24.644Z,69.14
2018-06-18T20:53:54.654Z,70.61
2018-06-18T20:56:25.498Z,70.74
2018-06-18T20:58:55.160Z,71.03
2018-06-18T21:01:25.339Z,71.17
2018-06-18T21:03:56.281Z,71.32
2018-06-18T21:06:26.295Z,71.26
2018-06-18T21:08:57.011Z,71.52
2018-06-18T21:11:27.812Z,72.05
2018-06-18T21:13:58.201Z,72.39
2018-06-18T21:16:31.435Z,72.63
2018-06-18T21:19:02.163Z,73.60
2018-06-18T21:21:32.582Z,72.81
2018-06-18T21:24:06.491Z,73.34
2018-06-18T21:26:39.730Z,72.83
2018-06-18T21:29:10.683Z,73.66
2018-06-18T21:31:43.982Z,73.99
2018-06-18T21:34:15.357Z,73.45
2018-06-18T21:36:47.995Z,73.24
2018-06-18T21:39:20.671Z,72.57
2018-06-18T21:41:50.688Z,73.06
2018-06-18T21:44:25.067Z,73.87
2018-06-18T21:46:55.490Z,73.88
2018-06-18T21:49:25.448Z,74.32
2018-06-18T21:51:55.589Z,75.08
2018-06-18T21:54:25.243Z,75.66
2018-06-18T21:56:56.077Z,76.53
2018-06-18T21:59:26.065Z,76.55
2018-06-18T22:01:56.026Z,75.94
2018-06-18T22:04:25.931Z,76.56
2018-06-18T22:06:55.947Z,76.68
2018-06-18T22:09:26.215Z,77.25
2018-06-18T22:11:59.380Z,77.26
2018-06-18T22:14:30.016Z,77.03
2018-06-18T22:17:01.269Z,77.09
2018-06-18T22:19:32.055Z,77.48
2018-06-18T22:22:01.779Z,77.41
2018-06-18T22:24:31.716Z,77.50
2018-06-18T22:29:29.249Z,77.60
2018-06-18T22:31:58.348Z,78.26
2018-06-18T22:34:27.637Z,78.57
2018-06-18T22:36:56.826Z,78.81
2018-06-18T22:39:26.089Z,79.13
2018-06-18T22:41:55.283Z,79.07
2018-06-18T22:44:24.671Z,79.46
2018-06-18T22:46:53.882Z,79.18
2018-06-18T22:49:23.851Z,79.29
2018-06-18T22:51:53.737Z,79.19
2018-06-18T22:54:23.947Z,79.74
2018-06-18T22:56:53.958Z,79.75
2018-06-18T22:59:23.995Z,79.42
2018-06-18T23:01:54.242Z,79.50
2018-06-18T23:04:24.041Z,79.89
2018-06-18T23:06:54.067Z,79.95
2018-06-18T23:09:28.916Z,79.62
2018-06-18T23:11:58.099Z,80.08
2018-06-18T23:14:27.418Z,79.93
2018-06-18T23:16:56.785Z,80.17
2018-06-18T23:19:26.048Z,80.25
2018-06-18T23:21:55.234Z,80.46
2018-06-18T23:24:24.398Z,80.37
2018-06-18T23:26:54.199Z,81.08
2018-06-18T23:29:24.666Z,80.40
2018-06-18T23:31:54.221Z,80.85
2018-06-18T23:34:24.436Z,80.43
2018-06-18T23:36:54.377Z,80.94
2018-06-18T23:39:24.351Z,80.58
2018-06-18T23:41:56.056Z,81.54
2018-06-18T23:44:25.404Z,81.41
2018-06-18T23:46:54.662Z,81.04
2018-06-18T23:49:24.359Z,81.57
2018-06-18T23:51:54.414Z,81.52
2018-06-18T23:54:25.083Z,81.24
2018-06-18T23:56:54.464Z,82.62
2018-06-18T23:59:24.453Z,82.15
